sensor_id;sensor_type;location;lat;lon;timestamp;temperature;humidity
75161;DHT22;67232;50.096;8.716;2023-10-13T00:02:04;18.60;87.10
75161;DHT22;67232;50.096;8.716;2023-10-13T00:04:33;18.70;87.00
75161;DHT22;67232;50.096;8.716;2023-10-13T00:07:01;18.70;87.10
75161;DHT22;67232;50.096;8.716;2023-10-13T00:09:30;18.60;87.10
75161;DHT22;67232;50.096;8.716;2023-10-13T00:12:03;18.60;87.10
75161;DHT22;67232;50.096;8.716;2023-10-13T00:14:30;18.60;87.00
75161;DHT22;67232;50.096;8.716;2023-10-13T00:17:06;18.60;87.10
75161;DHT22;67232;50.096;8.716;2023-10-13T00:19:43;18.50;87.10
75161;DHT22;67232;50.096;8.716;2023-10-13T00:22:14;18.50;87.20
75161;DHT22;67232;50.096;8.716;2023-10-13T00:24:43;18.60;87.10
75161;DHT22;67232;50.096;8.716;2023-10-13T00:27:12;18.50;87.30
75161;DHT22;67232;50.096;8.716;2023-10-13T00:30:04;18.50;87.30
75161;DHT22;67232;50.096;8.716;2023-10-13T00:33:01;18.40;87.50
75161;DHT22;67232;50.096;8.716;2023-10-13T00:35:27;18.40;87.60
75161;DHT22;67232;50.096;8.716;2023-10-13T00:38:07;18.40;87.70
75161;DHT22;67232;50.096;8.716;2023-10-13T00:40:41;18.40;87.50
75161;DHT22;67232;50.096;8.716;2023-10-13T00:43:12;18.40;87.60
75161;DHT22;67232;50.096;8.716;2023-10-13T00:48:35;18.50;87.50
75161;DHT22;67232;50.096;8.716;2023-10-13T00:51:09;18.50;87.30
75161;DHT22;67232;50.096;8.716;2023-10-13T00:53:46;18.50;87.00
75161;DHT22;67232;50.096;8.716;2023-10-13T00:56:15;18.50;87.20
75161;DHT22;67232;50.096;8.716;2023-10-13T00:58:55;18.50;87.10
75161;DHT22;67232;50.096;8.716;2023-10-13T01:01:23;18.60;87.10
75161;DHT22;67232;50.096;8.716;2023-10-13T01:03:56;18.60;86.90
75161;DHT22;67232;50.096;8.716;2023-10-13T01:06:27;18.60;86.90
75161;DHT22;67232;50.096;8.716;2023-10-13T01:09:06;18.60;86.90
75161;DHT22;67232;50.096;8.716;2023-10-13T01:11:43;18.60;86.90
75161;DHT22;67232;50.096;8.716;2023-10-13T01:14:12;18.60;86.90
75161;DHT22;67232;50.096;8.716;2023-10-13T01:16:40;18.60;86.90
75161;DHT22;67232;50.096;8.716;2023-10-13T01:19:16;18.60;87.00
75161;DHT22;67232;50.096;8.716;2023-10-13T01:21:50;18.60;87.00
75161;DHT22;67232;50.096;8.716;2023-10-13T01:24:20;18.50;86.90
75161;DHT22;67232;50.096;8.716;2023-10-13T01:26:49;18.50;87.00
75161;DHT22;67232;50.096;8.716;2023-10-13T01:29:17;18.50;87.10
75161;DHT22;67232;50.096;8.716;2023-10-13T01:31:47;18.50;87.00
75161;DHT22;67232;50.096;8.716;2023-10-13T01:34:18;18.50;87.00
75161;DHT22;67232;50.096;8.716;2023-10-13T01:36:51;18.50;86.90
75161;DHT22;67232;50.096;8.716;2023-10-13T01:39:21;18.50;86.90
75161;DHT22;67232;50.096;8.716;2023-10-13T01:41:54;18.40;87.10
75161;DHT22;67232;50.096;8.716;2023-10-13T01:44:26;18.40;87.10
75161;DHT22;67232;50.096;8.716;2023-10-13T01:46:59;18.30;87.10
75161;DHT22;67232;50.096;8.716;2023-10-13T01:49:25;18.30;87.20
75161;DHT22;67232;50.096;8.716;2023-10-13T01:51:51;18.40;87.20
75161;DHT22;67232;50.096;8.716;2023-10-13T01:54:16;18.30;87.10
75161;DHT22;67232;50.096;8.716;2023-10-13T01:56:42;18.30;87.20
75161;DHT22;67232;50.096;8.716;2023-10-13T01:59:08;18.30;87.10
75161;DHT22;67232;50.096;8.716;2023-10-13T02:01:37;18.30;87.30
75161;DHT22;67232;50.096;8.716;2023-10-13T02:04:03;18.30;87.20
75161;DHT22;67232;50.096;8.716;2023-10-13T02:06:33;18.30;87.30
75161;DHT22;67232;50.096;8.716;2023-10-13T02:09:03;18.30;87.40
75161;DHT22;67232;50.096;8.716;2023-10-13T02:11:53;18.30;87.40
75161;DHT22;67232;50.096;8.716;2023-10-13T02:14:19;18.30;87.30
75161;DHT22;67232;50.096;8.716;2023-10-13T02:16:48;18.30;87.20
75161;DHT22;67232;50.096;8.716;2023-10-13T02:19:16;18.20;87.30
75161;DHT22;67232;50.096;8.716;2023-10-13T02:21:47;18.30;87.30
75161;DHT22;67232;50.096;8.716;2023-10-13T02:24:24;18.20;87.40
75161;DHT22;67232;50.096;8.716;2023-10-13T02:26:56;18.20;87.50
75161;DHT22;67232;50.096;8.716;2023-10-13T02:29:34;18.20;87.50
75161;DHT22;67232;50.096;8.716;2023-10-13T02:32:04;18.20;87.40
75161;DHT22;67232;50.096;8.716;2023-10-13T02:34:38;18.30;87.40
75161;DHT22;67232;50.096;8.716;2023-10-13T02:37:09;18.30;87.30
75161;DHT22;67232;50.096;8.716;2023-10-13T02:39:37;18.30;87.50
75161;DHT22;67232;50.096;8.716;2023-10-13T02:42:09;18.30;87.50
75161;DHT22;67232;50.096;8.716;2023-10-13T02:44:42;18.30;87.40
75161;DHT22;67232;50.096;8.716;2023-10-13T02:47:13;18.20;87.40
75161;DHT22;67232;50.096;8.716;2023-10-13T02:49:44;18.20;87.60
75161;DHT22;67232;50.096;8.716;2023-10-13T02:52:13;18.20;87.50
75161;DHT22;67232;50.096;8.716;2023-10-13T02:54:41;18.20;87.40
75161;DHT22;67232;50.096;8.716;2023-10-13T02:57:18;18.10;87.60
75161;DHT22;67232;50.096;8.716;2023-10-13T02:59:45;18.10;87.80
75161;DHT22;67232;50.096;8.716;2023-10-13T03:02:21;18.10;87.70
75161;DHT22;67232;50.096;8.716;2023-10-13T03:04:51;18.10;87.70
75161;DHT22;67232;50.096;8.716;2023-10-13T03:07:17;18.10;87.70
75161;DHT22;67232;50.096;8.716;2023-10-13T03:09:51;18.10;87.70
75161;DHT22;67232;50.096;8.716;2023-10-13T03:12:23;18.00;87.80
75161;DHT22;67232;50.096;8.716;2023-10-13T03:14:58;18.10;87.80
75161;DHT22;67232;50.096;8.716;2023-10-13T03:17:38;18.10;87.80
75161;DHT22;67232;50.096;8.716;2023-10-13T03:20:20;18.00;88.00
75161;DHT22;67232;50.096;8.716;2023-10-13T03:22:59;18.00;88.10
75161;DHT22;67232;50.096;8.716;2023-10-13T03:25:25;18.10;88.10
75161;DHT22;67232;50.096;8.716;2023-10-13T03:28:08;18.10;88.00
75161;DHT22;67232;50.096;8.716;2023-10-13T03:30:37;18.10;87.60
75161;DHT22;67232;50.096;8.716;2023-10-13T03:33:10;18.10;87.80
75161;DHT22;67232;50.096;8.716;2023-10-13T03:35:40;18.20;87.60
75161;DHT22;67232;50.096;8.716;2023-10-13T03:38:07;18.10;87.70
75161;DHT22;67232;50.096;8.716;2023-10-13T03:40:42;18.10;87.60
75161;DHT22;67232;50.096;8.716;2023-10-13T03:43:13;18.10;87.80
75161;DHT22;67232;50.096;8.716;2023-10-13T03:45:49;18.10;88.00
75161;DHT22;67232;50.096;8.716;2023-10-13T03:48:19;18.00;88.20
75161;DHT22;67232;50.096;8.716;2023-10-13T03:53:34;18.00;88.20
75161;DHT22;67232;50.096;8.716;2023-10-13T03:56:19;18.00;88.30
75161;DHT22;67232;50.096;8.716;2023-10-13T03:58:58;18.00;88.30
75161;DHT22;67232;50.096;8.716;2023-10-13T04:01:26;18.00;88.20
75161;DHT22;67232;50.096;8.716;2023-10-13T04:03:58;18.00;88.30
75161;DHT22;67232;50.096;8.716;2023-10-13T04:06:35;18.00;88.40
75161;DHT22;67232;50.096;8.716;2023-10-13T04:09:13;18.00;88.20
75161;DHT22;67232;50.096;8.716;2023-10-13T04:12:01;18.00;88.30
75161;DHT22;67232;50.096;8.716;2023-10-13T04:14:39;18.00;88.30
75161;DHT22;67232;50.096;8.716;2023-10-13T04:17:24;18.00;88.30
75161;DHT22;67232;50.096;8.716;2023-10-13T04:19:57;18.00;88.00
75161;DHT22;67232;50.096;8.716;2023-10-13T04:27:58;18.10;87.40
75161;DHT22;67232;50.096;8.716;2023-10-13T04:30:39;18.10;87.60
75161;DHT22;67232;50.096;8.716;2023-10-13T04:33:23;18.10;87.70
75161;DHT22;67232;50.096;8.716;2023-10-13T04:38:43;18.10;87.90
75161;DHT22;67232;50.096;8.716;2023-10-13T04:41:18;18.10;87.50
75161;DHT22;67232;50.096;8.716;2023-10-13T04:43:48;18.10;87.40
75161;DHT22;67232;50.096;8.716;2023-10-13T04:46:26;18.10;87.20
75161;DHT22;67232;50.096;8.716;2023-10-13T04:49:05;18.20;87.30
75161;DHT22;67232;50.096;8.716;2023-10-13T04:52:00;18.20;87.20
75161;DHT22;67232;50.096;8.716;2023-10-13T04:54:53;18.20;87.30
75161;DHT22;67232;50.096;8.716;2023-10-13T04:57:22;18.20;87.30
75161;DHT22;67232;50.096;8.716;2023-10-13T05:00:12;18.20;87.30
75161;DHT22;67232;50.096;8.716;2023-10-13T05:02:43;18.10;87.60
75161;DHT22;67232;50.096;8.716;2023-10-13T05:05:43;18.10;87.90
75161;DHT22;67232;50.096;8.716;2023-10-13T05:08:27;18.10;87.90
75161;DHT22;67232;50.096;8.716;2023-10-13T05:11:11;18.10;87.90
75161;DHT22;67232;50.096;8.716;2023-10-13T05:13:55;18.00;88.00
75161;DHT22;67232;50.096;8.716;2023-10-13T05:16:39;18.00;87.90
75161;DHT22;67232;50.096;8.716;2023-10-13T05:19:23;18.10;87.90
75161;DHT22;67232;50.096;8.716;2023-10-13T05:22:08;18.00;88.00
75161;DHT22;67232;50.096;8.716;2023-10-13T05:24:54;18.00;88.00
75161;DHT22;67232;50.096;8.716;2023-10-13T05:27:38;18.00;88.00
75161;DHT22;67232;50.096;8.716;2023-10-13T05:30:22;18.00;88.10
75161;DHT22;67232;50.096;8.716;2023-10-13T05:33:06;18.00;88.20
75161;DHT22;67232;50.096;8.716;2023-10-13T05:35:52;18.00;88.10
75161;DHT22;67232;50.096;8.716;2023-10-13T05:38:36;18.00;88.10
75161;DHT22;67232;50.096;8.716;2023-10-13T05:41:22;18.10;88.00
75161;DHT22;67232;50.096;8.716;2023-10-13T05:44:05;18.00;88.00
75161;DHT22;67232;50.096;8.716;2023-10-13T05:46:52;18.00;88.00
75161;DHT22;67232;50.096;8.716;2023-10-13T05:49:47;18.00;88.10
75161;DHT22;67232;50.096;8.716;2023-10-13T05:52:16;18.00;88.10
75161;DHT22;67232;50.096;8.716;2023-10-13T05:54:47;18.00;88.20
75161;DHT22;67232;50.096;8.716;2023-10-13T05:57:33;18.00;88.10
75161;DHT22;67232;50.096;8.716;2023-10-13T06:00:18;18.00;88.20
75161;DHT22;67232;50.096;8.716;2023-10-13T06:03:02;18.00;88.10
75161;DHT22;67232;50.096;8.716;2023-10-13T06:05:51;18.00;88.10
75161;DHT22;67232;50.096;8.716;2023-10-13T06:08:35;18.00;88.00
75161;DHT22;67232;50.096;8.716;2023-10-13T06:11:19;18.00;88.00
75161;DHT22;67232;50.096;8.716;2023-10-13T06:14:06;18.00;88.20
75161;DHT22;67232;50.096;8.716;2023-10-13T06:16:50;18.00;88.30
75161;DHT22;67232;50.096;8.716;2023-10-13T06:19:34;18.00;88.30
75161;DHT22;67232;50.096;8.716;2023-10-13T06:22:21;18.10;88.20
75161;DHT22;67232;50.096;8.716;2023-10-13T06:25:05;18.10;88.10
75161;DHT22;67232;50.096;8.716;2023-10-13T06:27:52;18.10;87.90
75161;DHT22;67232;50.096;8.716;2023-10-13T06:30:36;18.20;87.80
75161;DHT22;67232;50.096;8.716;2023-10-13T06:33:01;18.20;87.70
75161;DHT22;67232;50.096;8.716;2023-10-13T06:35:32;18.30;87.60
75161;DHT22;67232;50.096;8.716;2023-10-13T06:37:59;18.30;87.60
75161;DHT22;67232;50.096;8.716;2023-10-13T06:40:28;18.30;87.50
75161;DHT22;67232;50.096;8.716;2023-10-13T06:42:56;18.40;87.50
75161;DHT22;67232;50.096;8.716;2023-10-13T06:45:37;18.40;87.40
75161;DHT22;67232;50.096;8.716;2023-10-13T06:48:05;18.40;86.90
75161;DHT22;67232;50.096;8.716;2023-10-13T06:50:36;18.40;86.80
75161;DHT22;67232;50.096;8.716;2023-10-13T06:53:07;18.50;86.40
75161;DHT22;67232;50.096;8.716;2023-10-13T06:55:37;18.60;86.40
75161;DHT22;67232;50.096;8.716;2023-10-13T06:58:05;18.70;86.50
75161;DHT22;67232;50.096;8.716;2023-10-13T07:00:34;18.70;86.40
75161;DHT22;67232;50.096;8.716;2023-10-13T07:03:04;18.80;86.40
75161;DHT22;67232;50.096;8.716;2023-10-13T07:05:44;18.90;86.30
75161;DHT22;67232;50.096;8.716;2023-10-13T07:08:13;19.00;86.30
75161;DHT22;67232;50.096;8.716;2023-10-13T07:10:53;19.00;86.30
75161;DHT22;67232;50.096;8.716;2023-10-13T07:13:28;19.10;86.20
75161;DHT22;67232;50.096;8.716;2023-10-13T07:15:55;19.20;86.00
75161;DHT22;67232;50.096;8.716;2023-10-13T07:18:28;19.30;85.80
75161;DHT22;67232;50.096;8.716;2023-10-13T07:21:01;19.30;85.90
75161;DHT22;67232;50.096;8.716;2023-10-13T07:23:37;19.30;85.30
75161;DHT22;67232;50.096;8.716;2023-10-13T07:26:05;19.30;84.70
75161;DHT22;67232;50.096;8.716;2023-10-13T07:28:32;19.40;84.00
75161;DHT22;67232;50.096;8.716;2023-10-13T07:31:04;19.30;84.20
75161;DHT22;67232;50.096;8.716;2023-10-13T07:33:30;19.20;83.90
75161;DHT22;67232;50.096;8.716;2023-10-13T07:36:05;19.20;84.20
75161;DHT22;67232;50.096;8.716;2023-10-13T07:38:42;19.30;83.80
75161;DHT22;67232;50.096;8.716;2023-10-13T07:41:14;19.40;83.50
75161;DHT22;67232;50.096;8.716;2023-10-13T07:43:41;19.50;83.40
75161;DHT22;67232;50.096;8.716;2023-10-13T07:46:08;19.60;83.30
75161;DHT22;67232;50.096;8.716;2023-10-13T07:48:38;19.70;83.40
75161;DHT22;67232;50.096;8.716;2023-10-13T07:51:10;19.90;82.60
75161;DHT22;67232;50.096;8.716;2023-10-13T07:53:42;19.90;82.10
75161;DHT22;67232;50.096;8.716;2023-10-13T07:56:09;20.00;82.10
75161;DHT22;67232;50.096;8.716;2023-10-13T07:58:37;20.10;82.40
75161;DHT22;67232;50.096;8.716;2023-10-13T08:01:18;20.20;81.40
75161;DHT22;67232;50.096;8.716;2023-10-13T08:03:44;20.30;81.60
75161;DHT22;67232;50.096;8.716;2023-10-13T08:06:11;20.50;81.50
75161;DHT22;67232;50.096;8.716;2023-10-13T08:08:37;20.50;80.20
75161;DHT22;67232;50.096;8.716;2023-10-13T08:11:13;20.60;80.70
75161;DHT22;67232;50.096;8.716;2023-10-13T08:13:58;20.80;79.80
75161;DHT22;67232;50.096;8.716;2023-10-13T08:16:28;20.90;79.50
75161;DHT22;67232;50.096;8.716;2023-10-13T08:19:14;21.20;79.20
75161;DHT22;67232;50.096;8.716;2023-10-13T08:21:46;21.40;79.00
75161;DHT22;67232;50.096;8.716;2023-10-13T08:24:23;21.70;77.50
75161;DHT22;67232;50.096;8.716;2023-10-13T08:27:15;22.00;77.60
75161;DHT22;67232;50.096;8.716;2023-10-13T08:29:45;22.40;76.40
75161;DHT22;67232;50.096;8.716;2023-10-13T08:32:37;22.70;75.80
75161;DHT22;67232;50.096;8.716;2023-10-13T08:35:11;23.00;75.60
75161;DHT22;67232;50.096;8.716;2023-10-13T08:37:48;23.30;75.20
75161;DHT22;67232;50.096;8.716;2023-10-13T08:40:16;23.50;73.50
75161;DHT22;67232;50.096;8.716;2023-10-13T08:43:03;23.80;72.70
75161;DHT22;67232;50.096;8.716;2023-10-13T08:45:30;23.60;72.50
75161;DHT22;67232;50.096;8.716;2023-10-13T08:47:58;23.50;71.70
75161;DHT22;67232;50.096;8.716;2023-10-13T08:50:37;23.40;72.60
75161;DHT22;67232;50.096;8.716;2023-10-13T08:53:16;23.30;73.00
75161;DHT22;67232;50.096;8.716;2023-10-13T08:55:59;23.10;72.70
75161;DHT22;67232;50.096;8.716;2023-10-13T08:58:48;23.20;72.30
75161;DHT22;67232;50.096;8.716;2023-10-13T09:01:28;23.40;72.40
75161;DHT22;67232;50.096;8.716;2023-10-13T09:04:17;23.80;70.90
75161;DHT22;67232;50.096;8.716;2023-10-13T09:07:04;23.70;69.00
75161;DHT22;67232;50.096;8.716;2023-10-13T09:12:31;23.10;70.50
75161;DHT22;67232;50.096;8.716;2023-10-13T09:15:00;22.90;71.50
75161;DHT22;67232;50.096;8.716;2023-10-13T09:17:46;22.80;71.30
75161;DHT22;67232;50.096;8.716;2023-10-13T09:20:15;22.90;71.80
75161;DHT22;67232;50.096;8.716;2023-10-13T09:22:51;22.90;71.90
75161;DHT22;67232;50.096;8.716;2023-10-13T09:25:32;23.10;71.60
75161;DHT22;67232;50.096;8.716;2023-10-13T09:28:13;23.50;70.80
75161;DHT22;67232;50.096;8.716;2023-10-13T09:30:53;23.60;69.70
75161;DHT22;67232;50.096;8.716;2023-10-13T09:33:25;23.50;70.70
75161;DHT22;67232;50.096;8.716;2023-10-13T09:36:04;23.60;70.50
75161;DHT22;67232;50.096;8.716;2023-10-13T09:38:36;23.60;69.30
75161;DHT22;67232;50.096;8.716;2023-10-13T09:41:06;23.80;68.80
75161;DHT22;67232;50.096;8.716;2023-10-13T09:43:58;24.30;66.50
75161;DHT22;67232;50.096;8.716;2023-10-13T09:46:26;24.30;66.70
75161;DHT22;67232;50.096;8.716;2023-10-13T09:49:11;24.40;66.50
75161;DHT22;67232;50.096;8.716;2023-10-13T09:51:41;24.60;66.30
75161;DHT22;67232;50.096;8.716;2023-10-13T09:54:33;24.70;65.80
75161;DHT22;67232;50.096;8.716;2023-10-13T09:57:15;25.30;66.20
75161;DHT22;67232;50.096;8.716;2023-10-13T09:59:57;26.00;64.40
75161;DHT22;67232;50.096;8.716;2023-10-13T10:02:31;26.50;60.50
75161;DHT22;67232;50.096;8.716;2023-10-13T10:05:02;26.80;59.50
75161;DHT22;67232;50.096;8.716;2023-10-13T10:07:59;27.00;59.50
75161;DHT22;67232;50.096;8.716;2023-10-13T10:10:27;27.50;58.90
75161;DHT22;67232;50.096;8.716;2023-10-13T10:13:11;27.40;58.90
75161;DHT22;67232;50.096;8.716;2023-10-13T10:15:44;27.40;59.50
75161;DHT22;67232;50.096;8.716;2023-10-13T10:18:23;27.80;58.40
75161;DHT22;67232;50.096;8.716;2023-10-13T10:20:51;28.40;56.80
75161;DHT22;67232;50.096;8.716;2023-10-13T10:23:24;29.00;56.00
75161;DHT22;67232;50.096;8.716;2023-10-13T10:25:53;29.50;55.00
75161;DHT22;67232;50.096;8.716;2023-10-13T10:28:36;29.30;53.60
75161;DHT22;67232;50.096;8.716;2023-10-13T10:31:08;29.80;53.60
75161;DHT22;67232;50.096;8.716;2023-10-13T10:33:35;30.00;53.70
75161;DHT22;67232;50.096;8.716;2023-10-13T10:36:04;30.70;52.00
75161;DHT22;67232;50.096;8.716;2023-10-13T10:38:30;31.00;50.50
75161;DHT22;67232;50.096;8.716;2023-10-13T10:41:06;29.90;52.20
75161;DHT22;67232;50.096;8.716;2023-10-13T10:46:17;30.60;52.30
75161;DHT22;67232;50.096;8.716;2023-10-13T10:48:47;30.80;50.90
75161;DHT22;67232;50.096;8.716;2023-10-13T10:51:24;30.40;51.00
75161;DHT22;67232;50.096;8.716;2023-10-13T10:53:50;30.30;51.10
75161;DHT22;67232;50.096;8.716;2023-10-13T10:56:22;30.80;50.20
75161;DHT22;67232;50.096;8.716;2023-10-13T10:58:58;31.30;50.50
75161;DHT22;67232;50.096;8.716;2023-10-13T11:01:27;31.70;49.30
75161;DHT22;67232;50.096;8.716;2023-10-13T11:04:14;31.70;49.60
75161;DHT22;67232;50.096;8.716;2023-10-13T11:06:47;31.70;49.20
75161;DHT22;67232;50.096;8.716;2023-10-13T11:09:13;32.30;48.40
75161;DHT22;67232;50.096;8.716;2023-10-13T11:11:51;33.00;47.80
75161;DHT22;67232;50.096;8.716;2023-10-13T11:14:27;32.00;47.70
75161;DHT22;67232;50.096;8.716;2023-10-13T11:16:54;32.50;47.20
75161;DHT22;67232;50.096;8.716;2023-10-13T11:19:21;32.40;47.10
75161;DHT22;67232;50.096;8.716;2023-10-13T11:21:58;32.70;47.70
75161;DHT22;67232;50.096;8.716;2023-10-13T11:24:39;32.90;46.80
75161;DHT22;67232;50.096;8.716;2023-10-13T11:27:17;32.70;46.90
75161;DHT22;67232;50.096;8.716;2023-10-13T11:29:48;32.90;46.80
75161;DHT22;67232;50.096;8.716;2023-10-13T11:32:19;33.10;46.80
75161;DHT22;67232;50.096;8.716;2023-10-13T11:34:50;33.10;46.20
75161;DHT22;67232;50.096;8.716;2023-10-13T11:37:19;32.90;46.20
75161;DHT22;67232;50.096;8.716;2023-10-13T11:40:04;33.50;46.20
75161;DHT22;67232;50.096;8.716;2023-10-13T11:42:40;34.10;45.30
75161;DHT22;67232;50.096;8.716;2023-10-13T11:45:11;34.40;45.20
75161;DHT22;67232;50.096;8.716;2023-10-13T11:47:58;34.60;44.50
75161;DHT22;67232;50.096;8.716;2023-10-13T11:50:28;34.80;44.20
75161;DHT22;67232;50.096;8.716;2023-10-13T11:53:00;33.70;45.00
75161;DHT22;67232;50.096;8.716;2023-10-13T11:55:33;33.20;45.40
75161;DHT22;67232;50.096;8.716;2023-10-13T11:58:01;33.40;45.10
75161;DHT22;67232;50.096;8.716;2023-10-13T12:00:31;33.10;45.10
75161;DHT22;67232;50.096;8.716;2023-10-13T12:03:15;32.40;45.80
75161;DHT22;67232;50.096;8.716;2023-10-13T12:06:08;31.20;48.30
75161;DHT22;67232;50.096;8.716;2023-10-13T12:08:45;29.70;50.50
75161;DHT22;67232;50.096;8.716;2023-10-13T12:11:19;29.00;52.60
75161;DHT22;67232;50.096;8.716;2023-10-13T12:13:57;28.70;53.00
75161;DHT22;67232;50.096;8.716;2023-10-13T12:16:25;29.40;51.10
75161;DHT22;67232;50.096;8.716;2023-10-13T12:19:00;28.70;52.40
75161;DHT22;67232;50.096;8.716;2023-10-13T12:21:27;28.60;53.20
75161;DHT22;67232;50.096;8.716;2023-10-13T12:23:54;29.80;51.20
75161;DHT22;67232;50.096;8.716;2023-10-13T12:26:22;30.80;49.60
75161;DHT22;67232;50.096;8.716;2023-10-13T12:29:00;31.00;48.60
75161;DHT22;67232;50.096;8.716;2023-10-13T12:31:32;30.90;48.60
75161;DHT22;67232;50.096;8.716;2023-10-13T12:33:58;30.30;49.90
75161;DHT22;67232;50.096;8.716;2023-10-13T12:36:32;29.90;50.00
75161;DHT22;67232;50.096;8.716;2023-10-13T12:39:07;29.60;50.70
75161;DHT22;67232;50.096;8.716;2023-10-13T12:41:34;29.40;51.00
75161;DHT22;67232;50.096;8.716;2023-10-13T12:44:18;28.80;52.30
75161;DHT22;67232;50.096;8.716;2023-10-13T12:47:02;28.60;52.80
75161;DHT22;67232;50.096;8.716;2023-10-13T12:49:47;28.30;52.70
75161;DHT22;67232;50.096;8.716;2023-10-13T12:52:15;28.60;52.20
75161;DHT22;67232;50.096;8.716;2023-10-13T12:54:57;28.40;52.50
75161;DHT22;67232;50.096;8.716;2023-10-13T12:57:26;28.50;53.00
75161;DHT22;67232;50.096;8.716;2023-10-13T12:59:52;28.20;53.10
75161;DHT22;67232;50.096;8.716;2023-10-13T13:02:20;28.00;53.00
75161;DHT22;67232;50.096;8.716;2023-10-13T13:04:45;27.80;53.50
75161;DHT22;67232;50.096;8.716;2023-10-13T13:07:13;27.50;54.30
75161;DHT22;67232;50.096;8.716;2023-10-13T13:09:42;27.40;54.10
75161;DHT22;67232;50.096;8.716;2023-10-13T13:12:10;27.30;54.70
75161;DHT22;67232;50.096;8.716;2023-10-13T13:14:40;27.30;54.90
75161;DHT22;67232;50.096;8.716;2023-10-13T13:17:12;27.50;54.90
75161;DHT22;67232;50.096;8.716;2023-10-13T13:19:37;27.60;54.60
75161;DHT22;67232;50.096;8.716;2023-10-13T13:22:07;27.80;55.20
75161;DHT22;67232;50.096;8.716;2023-10-13T13:24:43;27.90;54.70
75161;DHT22;67232;50.096;8.716;2023-10-13T13:27:14;28.00;53.50
75161;DHT22;67232;50.096;8.716;2023-10-13T13:29:43;28.00;53.40
75161;DHT22;67232;50.096;8.716;2023-10-13T13:32:11;27.90;53.70
75161;DHT22;67232;50.096;8.716;2023-10-13T13:34:50;27.80;54.10
75161;DHT22;67232;50.096;8.716;2023-10-13T13:37:33;27.90;53.50
75161;DHT22;67232;50.096;8.716;2023-10-13T13:40:03;27.90;53.00
75161;DHT22;67232;50.096;8.716;2023-10-13T13:42:44;27.80;54.00
75161;DHT22;67232;50.096;8.716;2023-10-13T13:45:16;27.90;54.10
75161;DHT22;67232;50.096;8.716;2023-10-13T13:47:53;27.90;52.80
75161;DHT22;67232;50.096;8.716;2023-10-13T13:50:23;27.90;52.70
75161;DHT22;67232;50.096;8.716;2023-10-13T13:52:57;27.80;53.40
75161;DHT22;67232;50.096;8.716;2023-10-13T13:55:26;27.80;54.40
75161;DHT22;67232;50.096;8.716;2023-10-13T13:57:57;27.70;52.60
75161;DHT22;67232;50.096;8.716;2023-10-13T14:00:25;27.60;53.50
75161;DHT22;67232;50.096;8.716;2023-10-13T14:03:13;27.60;53.30
75161;DHT22;67232;50.096;8.716;2023-10-13T14:05:59;27.60;52.60
75161;DHT22;67232;50.096;8.716;2023-10-13T14:08:29;27.60;53.70
75161;DHT22;67232;50.096;8.716;2023-10-13T14:10:57;27.70;53.60
75161;DHT22;67232;50.096;8.716;2023-10-13T14:13:40;27.60;52.90
75161;DHT22;67232;50.096;8.716;2023-10-13T14:16:21;27.40;53.30
75161;DHT22;67232;50.096;8.716;2023-10-13T14:18:52;27.20;53.20
75161;DHT22;67232;50.096;8.716;2023-10-13T14:21:18;27.10;53.70
75161;DHT22;67232;50.096;8.716;2023-10-13T14:23:50;27.00;53.50
75161;DHT22;67232;50.096;8.716;2023-10-13T14:26:20;26.80;54.50
75161;DHT22;67232;50.096;8.716;2023-10-13T14:28:52;26.80;53.60
75161;DHT22;67232;50.096;8.716;2023-10-13T14:31:30;26.70;53.90
75161;DHT22;67232;50.096;8.716;2023-10-13T14:34:00;26.60;54.40
75161;DHT22;67232;50.096;8.716;2023-10-13T14:36:28;26.60;54.70
75161;DHT22;67232;50.096;8.716;2023-10-13T14:39:04;26.60;53.80
75161;DHT22;67232;50.096;8.716;2023-10-13T14:41:37;26.50;53.50
75161;DHT22;67232;50.096;8.716;2023-10-13T14:44:06;26.40;53.90
75161;DHT22;67232;50.096;8.716;2023-10-13T14:46:33;26.40;54.80
75161;DHT22;67232;50.096;8.716;2023-10-13T14:49:03;26.40;54.20
75161;DHT22;67232;50.096;8.716;2023-10-13T14:51:29;26.50;54.10
75161;DHT22;67232;50.096;8.716;2023-10-13T14:53:55;26.40;54.60
75161;DHT22;67232;50.096;8.716;2023-10-13T14:56:31;26.50;54.50
75161;DHT22;67232;50.096;8.716;2023-10-13T14:58:57;26.60;54.40
75161;DHT22;67232;50.096;8.716;2023-10-13T15:01:23;26.60;52.40
75161;DHT22;67232;50.096;8.716;2023-10-13T15:03:53;26.50;52.40
75161;DHT22;67232;50.096;8.716;2023-10-13T15:06:26;26.50;51.80
75161;DHT22;67232;50.096;8.716;2023-10-13T15:09:00;26.70;51.40
75161;DHT22;67232;50.096;8.716;2023-10-13T15:11:30;26.80;50.70
75161;DHT22;67232;50.096;8.716;2023-10-13T15:14:03;26.90;50.50
75161;DHT22;67232;50.096;8.716;2023-10-13T15:16:29;26.80;50.30
75161;DHT22;67232;50.096;8.716;2023-10-13T15:18:57;26.50;50.80
75161;DHT22;67232;50.096;8.716;2023-10-13T15:21:27;26.30;51.60
75161;DHT22;67232;50.096;8.716;2023-10-13T15:24:05;26.30;51.20
75161;DHT22;67232;50.096;8.716;2023-10-13T15:26:47;26.20;51.30
75161;DHT22;67232;50.096;8.716;2023-10-13T15:29:17;26.10;51.60
75161;DHT22;67232;50.096;8.716;2023-10-13T15:31:53;26.00;51.90
75161;DHT22;67232;50.096;8.716;2023-10-13T15:34:24;25.80;51.60
75161;DHT22;67232;50.096;8.716;2023-10-13T15:36:53;25.80;51.60
75161;DHT22;67232;50.096;8.716;2023-10-13T15:39:22;25.70;52.00
75161;DHT22;67232;50.096;8.716;2023-10-13T15:41:55;25.70;52.40
75161;DHT22;67232;50.096;8.716;2023-10-13T15:44:26;25.60;52.30
75161;DHT22;67232;50.096;8.716;2023-10-13T15:46:56;25.60;52.30
75161;DHT22;67232;50.096;8.716;2023-10-13T15:49:22;25.50;52.60
75161;DHT22;67232;50.096;8.716;2023-10-13T15:51:48;25.30;53.80
75161;DHT22;67232;50.096;8.716;2023-10-13T15:54:18;25.20;54.90
75161;DHT22;67232;50.096;8.716;2023-10-13T15:56:48;25.00;54.30
75161;DHT22;67232;50.096;8.716;2023-10-13T15:59:16;25.00;53.80
75161;DHT22;67232;50.096;8.716;2023-10-13T16:01:41;25.00;54.60
75161;DHT22;67232;50.096;8.716;2023-10-13T16:04:09;25.00;55.00
75161;DHT22;67232;50.096;8.716;2023-10-13T16:06:45;25.00;55.00
75161;DHT22;67232;50.096;8.716;2023-10-13T16:09:12;25.00;54.70
75161;DHT22;67232;50.096;8.716;2023-10-13T16:11:44;25.00;55.50
75161;DHT22;67232;50.096;8.716;2023-10-13T16:14:13;25.00;56.50
75161;DHT22;67232;50.096;8.716;2023-10-13T16:16:47;25.00;57.10
75161;DHT22;67232;50.096;8.716;2023-10-13T16:19:17;24.90;58.10
75161;DHT22;67232;50.096;8.716;2023-10-13T16:21:47;24.80;58.10
75161;DHT22;67232;50.096;8.716;2023-10-13T16:24:15;24.70;59.20
75161;DHT22;67232;50.096;8.716;2023-10-13T16:26:48;24.70;59.50
75161;DHT22;67232;50.096;8.716;2023-10-13T16:29:21;24.60;60.20
75161;DHT22;67232;50.096;8.716;2023-10-13T16:31:48;24.60;60.20
75161;DHT22;67232;50.096;8.716;2023-10-13T16:34:17;24.40;61.30